Time;durP1;ratioP1;P1;durP2;ratioP2;P2;SDS_P1;SDS_P2;PMS_P1;PMS_P2;Temp;Humidity;BMP_temperature;BMP_pressure;BME280_temperature;BME280_humidity;BME280_pressure;Samples;Min_cycle;Max_cycle;Signal;HPM_P1;HPM_P2
2023/10/31 00:02:19;;;;;;;4.75;3.10;;;;;;;9.93;100.00;99443.75;4985535;28;20173;-46
2023/10/31 00:04:45;;;;;;;4.78;3.15;;;;;;;9.90;100.00;99436.78;4973348;28;20272;-47
2023/10/31 00:07:11;;;;;;;7.53;3.20;;;;;;;9.94;100.00;99431.22;4988834;28;20206;-47
2023/10/31 00:09:36;;;;;;;6.68;3.72;;;;;;;9.91;100.00;99424.25;4991504;28;20292;-45
2023/10/31 00:12:02;;;;;;;12.23;3.75;;;;;;;9.82;100.00;99412.28;4988192;28;20243;-44
2023/10/31 00:14:27;;;;;;;7.82;3.63;;;;;;;9.84;100.00;99404.16;4986407;28;20557;-45
2023/10/31 00:16:53;;;;;;;5.57;2.97;;;;;;;9.88;100.00;99409.25;4984168;28;20198;-44
2023/10/31 00:19:19;;;;;;;5.50;3.55;;;;;;;9.86;100.00;99380.84;4970240;28;20566;-44
2023/10/31 00:21:44;;;;;;;6.63;3.30;;;;;;;9.91;100.00;99381.44;4991494;28;20165;-44
2023/10/31 00:24:10;;;;;;;3.55;2.63;;;;;;;9.94;100.00;99375.91;4987584;28;20201;-45
2023/10/31 00:26:35;;;;;;;4.72;3.10;;;;;;;9.93;100.00;99376.88;4981008;28;20671;-46
2023/10/31 00:29:01;;;;;;;7.95;3.45;;;;;;;9.92;100.00;99368.91;4989365;28;20190;-44
2023/10/31 00:31:26;;;;;;;8.63;4.03;;;;;;;9.82;100.00;99373.97;4982941;28;20189;-43
2023/10/31 00:33:52;;;;;;;6.20;3.97;;;;;;;9.80;100.00;99363.34;4988743;28;20262;-46
2023/10/31 00:36:17;;;;;;;9.07;3.25;;;;;;;9.85;100.00;99363.94;4971212;28;20209;-45
2023/10/31 00:38:43;;;;;;;7.47;4.38;;;;;;;9.82;100.00;99371.28;4989166;28;20170;-44
2023/10/31 00:41:08;;;;;;;5.75;4.57;;;;;;;9.81;100.00;99357.03;4982791;28;20197;-46
2023/10/31 00:43:34;;;;;;;8.88;5.07;;;;;;;9.80;100.00;99363.34;4984030;28;20176;-44
2023/10/31 00:45:59;;;;;;;11.45;4.97;;;;;;;9.84;100.00;99362.22;4985723;28;20300;-43
2023/10/31 00:48:24;;;;;;;8.73;5.60;;;;;;;9.83;100.00;99370.31;4971168;28;20197;-43
2023/10/31 00:50:50;;;;;;;9.52;5.43;;;;;;;9.83;100.00;99375.69;4983739;28;20189;-45
2023/10/31 00:53:16;;;;;;;6.88;5.13;;;;;;;9.83;100.00;99365.81;4972761;28;20384;-45
2023/10/31 00:55:42;;;;;;;7.28;4.82;;;;;;;9.86;100.00;99360.31;4980947;28;20690;-43
2023/10/31 00:58:08;;;;;;;5.15;3.92;;;;;;;9.91;100.00;99360.03;4965745;28;20189;-45
2023/10/31 01:00:34;;;;;;;5.45;3.72;;;;;;;9.94;100.00;99350.97;4984230;28;20180;-44
2023/10/31 01:02:59;;;;;;;9.02;4.88;;;;;;;9.90;100.00;99348.50;4983547;28;20181;-45
2023/10/31 01:05:25;;;;;;;7.57;5.10;;;;;;;9.86;100.00;99341.59;4984194;28;20237;-43
2023/10/31 01:07:50;;;;;;;8.20;5.00;;;;;;;9.83;100.00;99347.09;4984606;28;20174;-44
2023/10/31 01:10:16;;;;;;;8.13;4.90;;;;;;;9.80;100.00;99328.56;4972153;28;20660;-44
2023/10/31 01:12:41;;;;;;;9.63;5.65;;;;;;;9.79;100.00;99324.16;4979336;28;20565;-45
2023/10/31 01:15:07;;;;;;;7.57;4.00;;;;;;;9.86;100.00;99312.16;4969260;28;20182;-46
2023/10/31 01:17:32;;;;;;;9.52;5.47;;;;;;;9.88;100.00;99312.94;4984093;28;20870;-44
2023/10/31 01:19:58;;;;;;;7.80;4.72;;;;;;;9.89;100.00;99308.44;4986246;28;20181;-43
2023/10/31 01:22:23;;;;;;;8.63;5.30;;;;;;;9.88;100.00;99302.25;4962703;28;20181;-44
2023/10/31 01:24:49;;;;;;;9.25;5.70;;;;;;;9.89;100.00;99311.13;4982142;28;20317;-44
2023/10/31 01:27:14;;;;;;;7.90;4.43;;;;;;;9.97;100.00;99305.28;4983188;28;20209;-45
2023/10/31 01:29:40;;;;;;;9.18;5.10;;;;;;;9.93;100.00;99301.97;4983581;28;20177;-45
2023/10/31 01:32:06;;;;;;;5.38;4.25;;;;;;;9.96;100.00;99300.91;4969417;28;20609;-45
2023/10/31 01:34:32;;;;;;;7.03;4.50;;;;;;;10.00;100.00;99303.31;4981653;28;20205;-43
2023/10/31 01:36:58;;;;;;;9.00;5.20;;;;;;;10.00;100.00;99286.41;4985203;28;20213;-45
2023/10/31 01:39:23;;;;;;;7.85;5.53;;;;;;;9.94;100.00;99278.72;4964445;28;20177;-47
2023/10/31 01:41:49;;;;;;;9.07;5.40;;;;;;;9.93;100.00;99272.53;4971795;28;20659;-46
2023/10/31 01:44:14;;;;;;;7.40;5.13;;;;;;;9.97;100.00;99273.19;4965344;28;20215;-46
2023/10/31 01:46:40;;;;;;;5.57;4.80;;;;;;;10.03;100.00;99268.31;4965381;28;20209;-44
2023/10/31 01:49:05;;;;;;;7.43;5.70;;;;;;;9.97;100.00;99258.00;4961514;28;20194;-47
2023/10/31 01:51:31;;;;;;;5.80;5.20;;;;;;;9.97;100.00;99262.47;4972809;28;20192;-45
2023/10/31 01:53:57;;;;;;;8.77;5.40;;;;;;;9.99;100.00;99263.25;4983538;28;20193;-44
2023/10/31 01:56:25;;;;;;;9.27;5.90;;;;;;;9.93;100.00;99260.94;4968688;28;20300;-46
2023/10/31 01:58:52;;;;;;;7.15;4.93;;;;;;;9.98;100.00;99266.91;4966357;28;20197;-44
2023/10/31 02:01:18;;;;;;;8.93;6.28;;;;;;;9.94;100.00;99249.31;4970622;28;20594;-46
2023/10/31 02:03:44;;;;;;;8.30;6.05;;;;;;;9.90;100.00;99257.53;4981581;28;20169;-44
2023/10/31 02:06:09;;;;;;;6.20;5.60;;;;;;;9.93;100.00;99252.91;4977765;28;20225;-47
2023/10/31 02:08:35;;;;;;;7.70;5.55;;;;;;;9.92;100.00;99251.22;4979537;28;20276;-45
2023/10/31 02:11:00;;;;;;;10.68;6.03;;;;;;;9.98;100.00;99259.72;4981039;28;20212;-45
2023/10/31 02:13:26;;;;;;;7.07;5.40;;;;;;;9.94;100.00;99249.31;4969643;28;20881;-45
2023/10/31 02:15:51;;;;;;;9.32;5.43;;;;;;;9.93;100.00;99252.91;4964394;28;20297;-43
2023/10/31 02:18:17;;;;;;;6.30;5.30;;;;;;;9.90;100.00;99248.63;4982439;28;20664;-45
2023/10/31 02:20:43;;;;;;;7.10;5.45;;;;;;;9.93;100.00;99247.56;4985248;28;20664;-47
2023/10/31 02:23:09;;;;;;;6.25;5.63;;;;;;;9.92;100.00;99256.56;4973734;28;20176;-44
2023/10/31 02:25:34;;;;;;;5.45;4.93;;;;;;;9.95;100.00;99253.69;4986247;28;20579;-46
2023/10/31 02:28:00;;;;;;;5.50;4.55;;;;;;;9.94;100.00;99241.28;4983127;28;20219;-46
2023/10/31 02:30:26;;;;;;;4.90;4.40;;;;;;;9.96;100.00;99247.41;4964544;28;20177;-45
2023/10/31 02:32:52;;;;;;;5.32;4.82;;;;;;;9.99;100.00;99237.38;4985929;28;20193;-46
2023/10/31 02:35:18;;;;;;;4.60;4.10;;;;;;;10.04;100.00;99240.63;4958241;28;20194;-44
2023/10/31 02:37:44;;;;;;;6.15;5.30;;;;;;;10.00;100.00;99230.22;4982229;28;20660;-44
2023/10/31 02:40:10;;;;;;;5.70;5.20;;;;;;;9.98;100.00;99234.78;4984962;28;20727;-46
2023/10/31 02:42:36;;;;;;;6.47;4.65;;;;;;;10.01;100.00;99235.44;4985994;28;20189;-45
2023/10/31 02:45:03;;;;;;;6.80;4.65;;;;;;;10.04;100.00;99231.75;4983945;28;20561;-45
2023/10/31 02:47:28;;;;;;;5.63;4.72;;;;;;;10.05;100.00;99236.13;4986134;28;20185;-44
2023/10/31 02:49:55;;;;;;;6.22;5.50;;;;;;;10.03;100.00;99236.22;4984665;28;20185;-46
2023/10/31 02:52:21;;;;;;;6.03;5.45;;;;;;;10.03;100.00;99230.00;4985154;28;20268;-46
2023/10/31 02:54:47;;;;;;;4.97;4.47;;;;;;;10.08;100.00;99235.94;4970739;28;20271;-46
2023/10/31 02:57:14;;;;;;;6.32;5.70;;;;;;;10.07;100.00;99220.84;4982924;28;20213;-45
2023/10/31 02:59:40;;;;;;;5.93;5.32;;;;;;;10.06;100.00;99222.66;4969563;28;20181;-47
2023/10/31 03:02:05;;;;;;;6.03;5.40;;;;;;;10.04;100.00;99218.38;4982288;28;20252;-45
2023/10/31 03:04:31;;;;;;;6.10;5.50;;;;;;;10.07;100.00;99220.84;4984977;28;20276;-47
2023/10/31 03:06:57;;;;;;;5.63;5.13;;;;;;;10.06;100.00;99213.78;4983376;28;20279;-44
2023/10/31 03:09:23;;;;;;;5.47;4.93;;;;;;;10.12;100.00;99213.38;4982968;28;20185;-45
2023/10/31 03:11:48;;;;;;;6.18;3.90;;;;;;;10.10;100.00;99208.13;4982746;28;20178;-44
2023/10/31 03:14:14;;;;;;;6.07;5.53;;;;;;;10.10;100.00;99209.94;4972898;28;20512;-42
2023/10/31 03:16:39;;;;;;;6.88;6.18;;;;;;;10.10;100.00;99218.84;4969772;28;20206;-44
2023/10/31 03:19:07;;;;;;;6.93;5.22;;;;;;;10.09;100.00;99198.38;4981387;28;20268;-46
2023/10/31 03:21:33;;;;;;;7.07;6.18;;;;;;;10.11;100.00;99193.78;4986275;28;20197;-44
2023/10/31 03:23:59;;;;;;;6.15;5.65;;;;;;;10.12;100.00;99189.28;4984546;28;20182;-44
2023/10/31 03:26:25;;;;;;;6.63;5.95;;;;;;;10.11;100.00;99191.09;4968111;28;20692;-44
2023/10/31 03:28:50;;;;;;;6.85;6.15;;;;;;;10.11;100.00;99193.78;4974915;28;20193;-44
2023/10/31 03:31:16;;;;;;;6.70;6.03;;;;;;;10.10;100.00;99175.13;4973669;28;20185;-46
2023/10/31 03:33:42;;;;;;;6.57;5.78;;;;;;;10.16;100.00;99177.44;4984908;28;20296;-45
2023/10/31 03:36:08;;;;;;;7.30;6.50;;;;;;;10.08;100.00;99169.91;4968298;28;20206;-45
2023/10/31 03:38:35;;;;;;;6.53;5.78;;;;;;;10.10;100.00;99178.69;4989047;28;20189;-44
2023/10/31 03:41:02;;;;;;;6.75;6.03;;;;;;;10.07;100.00;99168.16;4982279;28;20213;-45
2023/10/31 03:43:28;;;;;;;6.50;5.85;;;;;;;10.09;100.00;99174.28;4969819;28;20192;-48
2023/10/31 03:45:55;;;;;;;8.27;5.95;;;;;;;10.07;100.00;99175.34;4972369;28;20663;-46
2023/10/31 03:48:20;;;;;;;10.07;6.05;;;;;;;10.08;100.00;99172.59;4986897;28;20190;-44
2023/10/31 03:50:46;;;;;;;7.88;5.75;;;;;;;10.09;100.00;99174.28;4972220;28;20182;-44
2023/10/31 03:53:12;;;;;;;7.90;6.72;;;;;;;10.04;100.00;99172.88;4986952;28;20220;-47
2023/10/31 03:55:38;;;;;;;7.70;6.57;;;;;;;10.07;100.00;99178.03;4985346;28;20217;-48
2023/10/31 03:58:04;;;;;;;7.45;6.43;;;;;;;10.04;100.00;99167.53;4983020;28;20198;-45
2023/10/31 04:00:30;;;;;;;8.35;6.85;;;;;;;10.10;100.00;99169.78;4983735;28;20751;-46
2023/10/31 04:02:55;;;;;;;7.80;5.47;;;;;;;10.15;100.00;99167.72;4984339;28;20177;-48
2023/10/31 04:05:22;;;;;;;8.98;5.93;;;;;;;10.15;100.00;99165.03;4982756;28;20209;-44
2023/10/31 04:07:49;;;;;;;7.45;6.75;;;;;;;10.08;100.00;99159.19;4971408;28;20185;-46
2023/10/31 04:10:15;;;;;;;6.57;5.82;;;;;;;10.13;100.00;99158.91;4983788;28;20185;-45
2023/10/31 04:12:42;;;;;;;8.02;7.22;;;;;;;10.10;100.00;99157.28;4956408;28;20182;-49
2023/10/31 04:15:08;;;;;;;9.13;7.13;;;;;;;10.13;100.00;99156.25;4967630;28;20213;-47
2023/10/31 04:17:34;;;;;;;6.50;5.90;;;;;;;10.12;100.00;99149.16;4986817;28;20192;-45
2023/10/31 04:20:00;;;;;;;7.20;6.20;;;;;;;10.14;100.00;99144.56;4982438;28;20189;-45
2023/10/31 04:22:25;;;;;;;9.00;7.32;;;;;;;10.11;100.00;99139.41;4986667;28;20174;-46
2023/10/31 04:24:51;;;;;;;7.60;6.53;;;;;;;10.16;100.00;99139.13;4982451;28;20185;-46
2023/10/31 04:27:17;;;;;;;8.05;7.07;;;;;;;10.17;100.00;99141.72;4965965;28;20228;-47
2023/10/31 04:29:42;;;;;;;9.68;7.20;;;;;;;10.17;100.00;99132.81;4965497;28;20196;-46
2023/10/31 04:32:08;;;;;;;7.70;6.90;;;;;;;10.10;100.00;99130.53;4980496;28;20230;-43
2023/10/31 04:34:33;;;;;;;7.20;6.18;;;;;;;10.14;100.00;99133.00;4985181;28;20224;-47
2023/10/31 04:36:59;;;;;;;8.20;6.32;;;;;;;10.14;100.00;99122.31;4986069;28;20201;-48
2023/10/31 04:39:24;;;;;;;6.30;5.70;;;;;;;10.16;100.00;99112.34;4965031;28;20672;-45
2023/10/31 04:41:50;;;;;;;7.50;6.65;;;;;;;10.12;100.00;99119.72;4982843;28;20186;-46
2023/10/31 04:44:16;;;;;;;7.20;6.50;;;;;;;10.15;100.00;99116.84;4979114;28;20185;-52
2023/10/31 04:46:42;;;;;;;8.52;7.63;;;;;;;10.12;100.00;99117.03;4984820;28;20687;-44
2023/10/31 04:49:08;;;;;;;6.70;6.07;;;;;;;10.13;100.00;99112.56;4982270;28;20251;-46
2023/10/31 04:51:37;;;;;;;6.93;5.97;;;;;;;10.15;100.00;99106.16;4983694;28;20222;-46
2023/10/31 04:54:03;;;;;;;7.85;6.78;;;;;;;10.17;100.00;99106.06;4985400;28;20213;-44
2023/10/31 04:56:29;;;;;;;7.32;6.60;;;;;;;10.16;100.00;99109.69;4982163;28;20213;-47
2023/10/31 04:58:54;;;;;;;7.05;6.35;;;;;;;10.17;100.00;99101.56;4985678;28;20269;-47
2023/10/31 05:01:20;;;;;;;8.40;7.60;;;;;;;10.11;100.00;99105.47;4967152;28;20232;-45
2023/10/31 05:03:46;;;;;;;8.85;7.70;;;;;;;10.10;100.00;99110.91;4981670;28;20185;-45
2023/10/31 05:06:11;;;;;;;7.88;7.07;;;;;;;10.11;100.00;99104.63;4980512;28;20202;-48
2023/10/31 05:08:37;;;;;;;7.07;6.38;;;;;;;10.15;100.00;99110.66;4982159;28;20276;-49
2023/10/31 05:11:03;;;;;;;6.90;5.93;;;;;;;10.17;100.00;99101.56;4985572;28;20184;-44
2023/10/31 05:13:28;;;;;;;7.78;6.97;;;;;;;10.11;100.00;99115.34;4982931;28;20384;-43
2023/10/31 05:15:54;;;;;;;7.50;6.72;;;;;;;10.13;100.00;99102.72;4985920;28;20742;-47
2023/10/31 05:18:20;;;;;;;7.35;6.55;;;;;;;10.14;100.00;99103.56;4981581;28;20523;-47
2023/10/31 05:20:45;;;;;;;7.65;6.85;;;;;;;10.15;100.00;99100.81;4982886;28;20177;-46
2023/10/31 05:23:11;;;;;;;10.25;8.80;;;;;;;10.13;100.00;99096.50;4983942;28;20178;-46
2023/10/31 05:25:37;;;;;;;9.85;8.65;;;;;;;10.09;100.00;99094.00;4981380;28;20205;-48
2023/10/31 05:28:03;;;;;;;7.50;6.78;;;;;;;10.15;100.00;99086.56;4979182;28;20202;-46
2023/10/31 05:30:29;;;;;;;8.75;7.53;;;;;;;10.15;100.00;99086.56;4980772;28;20217;-45
2023/10/31 05:32:54;;;;;;;8.25;7.43;;;;;;;10.18;100.00;99081.84;4984126;28;20268;-44
2023/10/31 05:35:20;;;;;;;10.95;8.77;;;;;;;10.12;100.00;99084.91;4979342;28;20252;-47
2023/10/31 05:37:46;;;;;;;11.57;7.85;;;;;;;10.07;100.00;99079.88;4983766;28;20173;-45
2023/10/31 05:40:12;;;;;;;9.48;8.00;;;;;;;10.09;100.00;99085.13;4980258;28;20635;-45
2023/10/31 05:42:38;;;;;;;7.93;7.13;;;;;;;10.11;100.00;99073.38;4985790;28;20526;-46
2023/10/31 05:45:05;;;;;;;10.10;8.52;;;;;;;10.09;100.00;99069.06;4982275;28;20182;-44
2023/10/31 05:47:30;;;;;;;9.50;8.45;;;;;;;10.08;100.00;99072.72;4971421;28;20572;-47
2023/10/31 05:49:56;;;;;;;8.52;7.65;;;;;;;10.14;100.00;99074.13;4983299;28;20189;-46
2023/10/31 05:52:21;;;;;;;9.43;8.25;;;;;;;10.09;100.00;99066.41;4982234;28;20192;-44
2023/10/31 05:54:47;;;;;;;9.25;8.35;;;;;;;10.11;100.00;99067.16;4980090;28;20703;-48
2023/10/31 05:57:12;;;;;;;7.72;6.75;;;;;;;10.15;100.00;99068.69;4976493;28;20293;-42
2023/10/31 05:59:38;;;;;;;9.35;7.05;;;;;;;10.18;100.00;99072.97;4982373;28;20185;-44
2023/10/31 06:02:03;;;;;;;12.57;8.48;;;;;;;10.11;100.00;99073.38;4979282;28;20213;-44
2023/10/31 06:04:29;;;;;;;8.05;7.25;;;;;;;10.19;100.00;99075.56;4983973;28;20653;-45
2023/10/31 06:06:54;;;;;;;8.15;6.75;;;;;;;10.19;100.00;99083.59;4981523;28;20684;-46
2023/10/31 06:09:20;;;;;;;6.32;5.72;;;;;;;10.22;100.00;99085.19;4980665;28;20280;-45
2023/10/31 06:11:47;;;;;;;6.43;5.82;;;;;;;10.24;100.00;99085.97;4980398;28;20241;-44
2023/10/31 06:14:13;;;;;;;7.07;6.25;;;;;;;10.25;100.00;99098.38;4981052;28;20300;-45
2023/10/31 06:16:42;;;;;;;6.95;6.00;;;;;;;10.23;100.00;99100.28;4984968;28;20288;-47
2023/10/31 06:19:08;;;;;;;10.20;9.20;;;;;;;10.18;100.00;99097.06;4981960;28;20281;-48
2023/10/31 06:21:33;;;;;;;11.38;8.75;;;;;;;10.11;100.00;99099.28;4981857;28;20737;-45
2023/10/31 06:23:59;;;;;;;12.48;9.32;;;;;;;10.10;100.00;99084.16;4983152;28;20273;-46
2023/10/31 06:26:24;;;;;;;12.88;9.45;;;;;;;10.03;100.00;99083.69;4982422;28;20205;-47
2023/10/31 06:28:50;;;;;;;12.60;9.70;;;;;;;10.02;100.00;99079.31;4984988;28;20606;-45
2023/10/31 06:31:15;;;;;;;11.05;9.05;;;;;;;10.02;100.00;99081.13;4979619;28;20192;-44
2023/10/31 06:33:41;;;;;;;14.85;9.93;;;;;;;10.01;100.00;99079.41;4969374;28;20232;-47
2023/10/31 06:36:07;;;;;;;13.57;10.15;;;;;;;9.99;100.00;99081.31;4984357;28;20208;-46
2023/10/31 06:38:33;;;;;;;16.88;9.25;;;;;;;9.98;100.00;99084.97;4983516;28;20190;-44
2023/10/31 06:40:58;;;;;;;12.48;9.65;;;;;;;9.99;100.00;99089.34;4982687;28;20714;-47
2023/10/31 06:43:24;;;;;;;12.23;10.02;;;;;;;10.02;100.00;99087.34;4983648;28;20185;-47
2023/10/31 06:45:50;;;;;;;10.00;7.82;;;;;;;10.09;100.00;99080.63;4980577;28;20205;-46
2023/10/31 06:48:15;;;;;;;13.00;9.10;;;;;;;10.09;100.00;99087.81;4986524;28;20192;-46
2023/10/31 06:50:41;;;;;;;11.32;8.73;;;;;;;10.09;100.00;99083.31;4973483;28;20189;-48
2023/10/31 06:53:06;;;;;;;11.10;8.52;;;;;;;10.14;100.00;99082.16;4990721;28;20197;-47
2023/10/31 06:55:32;;;;;;;11.63;8.20;;;;;;;10.17;100.00;99080.16;4987054;28;20669;-46
2023/10/31 06:57:58;;;;;;;10.15;7.28;;;;;;;10.22;100.00;99094.09;4985584;28;20194;-47
2023/10/31 07:00:23;;;;;;;9.95;6.82;;;;;;;10.25;100.00;99095.69;4985902;28;20173;-45
2023/10/31 07:02:49;;;;;;;8.35;5.72;;;;;;;10.27;100.00;99097.31;4986236;28;20190;-45
2023/10/31 07:05:16;;;;;;;7.55;5.68;;;;;;;10.29;100.00;99100.78;4987910;28;20185;-46
2023/10/31 07:07:41;;;;;;;10.43;7.32;;;;;;;10.28;100.00;99101.72;4988410;28;20252;-45
2023/10/31 07:10:07;;;;;;;12.93;8.55;;;;;;;10.21;100.00;99108.44;4989994;28;20186;-42
2023/10/31 07:12:33;;;;;;;8.15;6.35;;;;;;;10.24;100.00;99100.19;4982767;28;20193;-45
2023/10/31 07:14:58;;;;;;;6.70;5.70;;;;;;;10.28;100.00;99095.53;4983780;28;20284;-45
2023/10/31 07:17:25;;;;;;;9.40;6.22;;;;;;;10.29;100.00;99095.44;4984892;28;20228;-45
2023/10/31 07:19:50;;;;;;;6.75;5.35;;;;;;;10.32;100.00;99110.47;4991760;28;20185;-48
2023/10/31 07:22:16;;;;;;;8.30;5.72;;;;;;;10.34;100.00;99097.81;4990474;28;20232;-43
2023/10/31 07:24:42;;;;;;;10.18;7.75;;;;;;;10.30;100.00;99094.50;4988626;28;20181;-47
2023/10/31 07:27:08;;;;;;;8.90;6.80;;;;;;;10.33;100.00;99103.28;4988061;28;20625;-46
2023/10/31 07:29:34;;;;;;;10.35;7.28;;;;;;;10.30;100.00;99102.53;4990036;28;20193;-47
2023/10/31 07:32:00;;;;;;;9.77;6.07;;;;;;;10.33;100.00;99116.66;4986469;28;20224;-46
2023/10/31 07:34:25;;;;;;;9.02;6.60;;;;;;;10.32;100.00;99107.78;4971494;28;20210;-48
2023/10/31 07:36:51;;;;;;;10.50;6.80;;;;;;;10.27;100.00;99109.84;4986142;28;20267;-46
2023/10/31 07:39:17;;;;;;;8.32;5.53;;;;;;;10.36;100.00;99113.78;4987148;28;20192;-45
2023/10/31 07:41:42;;;;;;;7.82;5.55;;;;;;;10.29;100.00;99116.84;4993274;28;20247;-44
2023/10/31 07:44:09;;;;;;;6.38;4.38;;;;;;;10.23;100.00;99103.84;4975740;28;20652;-46
2023/10/31 07:46:35;;;;;;;5.35;3.90;;;;;;;10.24;100.00;99118.09;4988939;28;20341;-47
2023/10/31 07:49:00;;;;;;;4.10;3.80;;;;;;;10.23;100.00;99113.66;4990533;28;20192;-47
2023/10/31 07:51:26;;;;;;;2.80;2.60;;;;;;;10.17;100.00;99112.28;4985693;28;20692;-44
2023/10/31 07:53:51;;;;;;;6.70;2.40;;;;;;;10.11;100.00;99120.69;4990387;28;20216;-44
2023/10/31 07:56:23;;;;;;;2.60;2.20;;;;;;;10.06;100.00;99123.66;4969465;28;20340;-47
2023/10/31 07:58:52;;;;;;;3.03;2.40;;;;;;;10.07;100.00;99111.97;4985766;28;20233;-46
2023/10/31 08:01:18;;;;;;;2.40;2.20;;;;;;;10.03;100.00;99112.28;4984887;28;20623;-44
2023/10/31 08:03:49;;;;;;;3.33;1.60;;;;;;;10.00;100.00;99109.81;4985137;28;20268;-44
2023/10/31 08:06:16;;;;;;;3.50;1.42;;;;;;;9.88;100.00;99120.34;4983263;28;20685;-45
2023/10/31 08:08:42;;;;;;;7.40;1.20;;;;;;;9.78;100.00;99119.19;4982406;28;20224;-48
2023/10/31 08:11:08;;;;;;;3.67;1.40;;;;;;;9.77;100.00;99125.47;4982109;28;20214;-44
2023/10/31 08:13:33;;;;;;;2.22;1.42;;;;;;;9.70;100.00;99132.16;4983576;28;20725;-47
2023/10/31 08:15:59;;;;;;;3.03;1.35;;;;;;;9.67;100.00;99124.34;4986040;28;20201;-45
2023/10/31 08:18:24;;;;;;;2.67;1.70;;;;;;;9.64;100.00;99129.84;4964465;28;20170;-48
2023/10/31 08:20:50;;;;;;;6.20;1.05;;;;;;;9.54;100.00;99123.38;4978041;28;20256;-44
2023/10/31 08:23:17;;;;;;;2.50;1.40;;;;;;;9.43;100.00;99132.91;4983299;28;20184;-45
2023/10/31 08:25:43;;;;;;;7.25;1.80;;;;;;;9.45;100.00;99143.50;4987322;28;20263;-46
2023/10/31 08:28:09;;;;;;;6.90;1.70;;;;;;;9.44;100.00;99131.09;4987363;28;20204;-48
2023/10/31 08:30:35;;;;;;;6.93;1.92;;;;;;;9.36;100.00;99152.06;4975655;28;20192;-46
2023/10/31 08:33:01;;;;;;;10.75;1.80;;;;;;;9.29;100.00;99156.91;4987038;28;20185;-46
2023/10/31 08:35:26;;;;;;;7.93;1.85;;;;;;;9.25;100.00;99144.72;4984309;28;20661;-50
2023/10/31 08:37:52;;;;;;;8.73;1.80;;;;;;;9.28;100.00;99152.53;4983218;28;20194;-46
2023/10/31 08:40:17;;;;;;;6.57;1.90;;;;;;;9.28;100.00;99149.88;4978052;28;20190;-45
2023/10/31 08:42:43;;;;;;;10.57;2.70;;;;;;;9.29;100.00;99156.91;4977062;28;20606;-46
2023/10/31 08:45:09;;;;;;;14.07;2.40;;;;;;;9.30;100.00;99164.00;4987131;28;20173;-46
2023/10/31 08:47:34;;;;;;;10.77;1.80;;;;;;;9.28;100.00;99168.56;4989592;28;20250;-46
2023/10/31 08:50:00;;;;;;;7.88;1.88;;;;;;;9.28;100.00;99165.91;4980012;28;20182;-47
2023/10/31 08:52:25;;;;;;;12.75;1.83;;;;;;;9.32;100.00;99171.94;4982251;28;20173;-47
2023/10/31 08:54:51;;;;;;;9.77;1.80;;;;;;;9.33;100.00;99189.69;4981537;28;20193;-49
2023/10/31 08:57:16;;;;;;;11.38;2.28;;;;;;;9.30;100.00;99181.84;4981091;28;20259;-45
2023/10/31 08:59:42;;;;;;;8.38;1.55;;;;;;;9.33;100.00;99197.69;4983220;28;20197;-46
2023/10/31 09:02:09;;;;;;;5.18;1.95;;;;;;;9.40;100.00;99201.72;4981944;28;20230;-44
2023/10/31 09:04:36;;;;;;;20.67;2.25;;;;;;;9.43;100.00;99194.38;4984293;28;20563;-48
2023/10/31 09:07:02;;;;;;;8.02;1.67;;;;;;;9.45;100.00;99188.97;4982967;28;20217;-47
2023/10/31 09:09:27;;;;;;;9.50;1.55;;;;;;;9.40;100.00;99210.63;4983690;28;20641;-46
2023/10/31 09:11:52;;;;;;;6.50;1.60;;;;;;;9.41;100.00;99208.81;4985115;28;20249;-47
2023/10/31 09:14:18;;;;;;;7.47;1.33;;;;;;;9.40;100.00;99210.63;4981710;28;20288;-48
2023/10/31 09:16:43;;;;;;;7.75;1.10;;;;;;;9.30;100.00;99220.13;4983593;28;20667;-50
2023/10/31 09:19:09;;;;;;;6.65;0.77;;;;;;;9.13;100.00;99225.59;4984190;28;20177;-45
2023/10/31 09:21:34;;;;;;;8.75;0.85;;;;;;;9.10;100.00;99231.97;4984390;28;20285;-46
2023/10/31 09:24:00;;;;;;;4.82;1.10;;;;;;;8.98;100.00;99238.88;4982786;28;20182;-46
2023/10/31 09:26:26;;;;;;;8.40;1.20;;;;;;;8.97;100.00;99237.16;4984422;28;20201;-44
2023/10/31 09:28:52;;;;;;;4.70;1.60;;;;;;;8.90;100.00;99246.47;4983109;28;20204;-47
2023/10/31 09:31:18;;;;;;;7.78;1.00;;;;;;;8.80;100.00;99250.63;4982815;28;20173;-46
2023/10/31 09:33:45;;;;;;;2.17;0.93;;;;;;;8.72;100.00;99248.34;4982293;28;20216;-46
2023/10/31 09:36:10;;;;;;;2.95;0.77;;;;;;;8.58;100.00;99266.97;4982586;28;20232;-47
2023/10/31 09:38:36;;;;;;;7.65;0.82;;;;;;;8.58;100.00;99259.81;4984941;28;20217;-46
2023/10/31 09:41:04;;;;;;;5.38;1.15;;;;;;;8.49;100.00;99272.81;4961252;28;20288;-46
2023/10/31 09:43:29;;;;;;;4.78;0.98;;;;;;;8.51;100.00;99277.13;4981995;28;20193;-47
2023/10/31 09:45:56;;;;;;;4.57;1.40;;;;;;;8.46;100.00;99273.81;4987748;28;20217;-45
2023/10/31 09:48:22;;;;;;;7.05;1.08;;;;;;;8.33;100.00;99278.06;4987521;28;20258;-46
2023/10/31 09:50:48;;;;;;;12.98;1.08;;;;;;;8.32;100.00;99295.91;4972564;28;20645;-48
2023/10/31 09:53:16;;;;;;;6.18;0.93;;;;;;;8.23;100.00;99293.72;4987293;28;20612;-47
2023/10/31 09:55:42;;;;;;;5.30;0.98;;;;;;;8.33;100.00;99307.44;4985963;28;20267;-47
2023/10/31 09:58:08;;;;;;;4.40;0.70;;;;;;;8.31;100.00;99323.53;4981028;28;20644;-48
2023/10/31 10:00:36;;;;;;;8.73;0.80;;;;;;;8.22;100.00;99330.22;4983787;28;20223;-48
2023/10/31 10:03:03;;;;;;;5.80;0.88;;;;;;;8.19;100.00;99356.19;4983364;28;20181;-47
2023/10/31 10:05:31;;;;;;;6.75;0.80;;;;;;;8.25;100.00;99359.41;4988282;28;20200;-47
2023/10/31 10:07:57;;;;;;;1.63;0.70;;;;;;;8.14;100.00;99374.25;4982606;28;20569;-45
2023/10/31 10:10:24;;;;;;;3.95;0.73;;;;;;;8.04;100.00;99397.84;4987360;28;20220;-47
2023/10/31 10:12:52;;;;;;;10.25;0.98;;;;;;;8.05;100.00;99402.25;4985217;28;20265;-45
2023/10/31 10:15:17;;;;;;;7.13;0.82;;;;;;;8.07;100.00;99392.38;4971904;28;20193;-46
2023/10/31 10:17:52;;;;;;;0.93;0.20;;;;;;;8.08;100.00;99403.91;4983191;28;20632;-45
2023/10/31 10:20:18;;;;;;;7.88;0.55;;;;;;;8.00;100.00;99409.59;4989357;28;20180;-45
2023/10/31 10:22:44;;;;;;;2.85;0.30;;;;;;;8.08;100.00;99419.91;4989575;28;20251;-46
2023/10/31 10:25:14;;;;;;;4.18;0.52;;;;;;;8.06;100.00;99422.63;4990876;28;20180;-44
2023/10/31 10:27:40;;;;;;;8.85;0.68;;;;;;;7.96;100.00;99424.03;4989954;28;20177;-46
2023/10/31 10:30:08;;;;;;;2.42;0.50;;;;;;;7.90;100.00;99432.38;4990441;28;20239;-47
2023/10/31 10:32:33;;;;;;;5.68;0.43;;;;;;;7.92;100.00;99441.16;4979614;28;20542;-44
2023/10/31 10:34:59;;;;;;;1.83;0.30;;;;;;;7.78;100.00;99442.69;4984539;28;20229;-44
2023/10/31 10:37:27;;;;;;;5.20;0.73;;;;;;;7.94;100.00;99439.28;4979296;28;20224;-45
2023/10/31 10:39:56;;;;;;;2.55;0.50;;;;;;;7.88;100.00;99450.25;4977416;28;20208;-46
2023/10/31 10:42:48;;;;;;;0.20;0.20;;;;;;;7.81;100.00;99450.53;4987579;28;20253;-46
2023/10/31 10:45:20;;;;;;;2.30;0.38;;;;;;;7.72;100.00;99453.66;4976257;28;20652;-45
2023/10/31 10:47:49;;;;;;;1.95;0.47;;;;;;;7.62;100.00;99463.88;4989261;28;20552;-43
2023/10/31 10:50:15;;;;;;;3.80;0.50;;;;;;;7.63;100.00;99475.41;4971207;28;20181;-46
2023/10/31 10:53:07;;;;;;;2.10;0.40;;;;;;;7.55;100.00;99474.94;4987343;28;20201;-46
2023/10/31 10:55:44;;;;;;;4.57;0.35;;;;;;;7.53;100.00;99483.00;4989619;28;20577;-44
2023/10/31 10:58:24;;;;;;;0.85;0.30;;;;;;;7.50;100.00;99487.59;4993361;28;20557;-45
2023/10/31 11:00:51;;;;;;;2.60;0.45;;;;;;;7.36;100.00;99491.78;4989002;28;20185;-45
2023/10/31 11:03:19;;;;;;;0.95;0.50;;;;;;;7.36;100.00;99499.75;4991211;28;20190;-43
2023/10/31 11:05:45;;;;;;;2.00;0.40;;;;;;;7.41;100.00;99502.22;4976606;28;20214;-47
2023/10/31 11:08:11;;;;;;;0.52;0.30;;;;;;;7.39;100.00;99515.63;4979892;28;20232;-45
2023/10/31 11:10:39;;;;;;;0.57;0.30;;;;;;;7.46;100.00;99515.34;4986249;28;20221;-45
2023/10/31 11:13:05;;;;;;;2.13;0.30;;;;;;;7.43;100.00;99519.88;4989545;28;20193;-45
2023/10/31 11:15:30;;;;;;;1.67;0.30;;;;;;;7.48;100.00;99521.44;4989962;28;20205;-46
2023/10/31 11:17:57;;;;;;;1.00;0.88;;;;;;;7.45;100.00;99525.13;4993631;28;20173;-45
2023/10/31 11:20:24;;;;;;;1.70;0.70;;;;;;;7.34;100.00;99525.59;4988295;28;20228;-45
2023/10/31 11:22:57;;;;;;;1.33;0.55;;;;;;;7.30;100.00;99542.66;4976540;28;20703;-46
2023/10/31 11:25:23;;;;;;;2.78;0.50;;;;;;;7.35;100.00;99546.00;4989797;28;20220;-44